Time,TemperatureF,DewpointF,PressureIn,WindDirection,WindDirectionDegrees,WindSpeedMPH,WindSpeedGustMPH,Humidity,HourlyPrecipIn,Conditions,Clouds,dailyrainin,SoftwareType,DateUTC
2015-04-26 00:02:00,72.8,69.7,29.74,SSW,192,1.0,2.0,90,0.00,,,0.00,VWS V12.08,2015-04-26 05:02:00,
2015-04-26 00:07:00,72.8,69.7,29.74,SSW,213,3.0,5.0,90,0.00,,,0.00,VWS V12.08,2015-04-26 05:07:00,
2015-04-26 00:12:00,72.7,69.6,29.74,WSW,250,0.0,2.0,90,0.00,,,0.00,VWS V12.08,2015-04-26 05:12:00,
2015-04-26 00:17:00,72.7,69.6,29.74,WSW,250,0.0,5.0,90,0.00,,,0.00,VWS V12.08,2015-04-26 05:17:00,
2015-04-26 00:22:00,72.7,69.6,29.74,WNW,285,1.0,2.0,90,0.00,,,0.00,VWS V12.08,2015-04-26 05:22:00,
2015-04-26 00:27:00,72.8,69.7,29.74,WNW,285,0.0,3.0,90,0.00,,,0.00,VWS V12.08,2015-04-26 05:27:00,
2015-04-26 00:32:00,72.7,69.6,29.74,WNW,285,1.0,1.0,90,0.00,,,0.00,VWS V12.08,2015-04-26 05:32:00,
2015-04-26 00:37:00,72.7,69.6,29.74,WNW,285,0.0,2.0,90,0.00,,,0.00,VWS V12.08,2015-04-26 05:37:00,
2015-04-26 00:42:00,72.5,69.4,29.74,WNW,284,1.0,2.0,90,0.00,,,0.00,VWS V12.08,2015-04-26 05:42:00,
2015-04-26 00:47:00,72.5,69.4,29.74,WNW,282,0.0,2.0,90,0.00,,,0.00,VWS V12.08,2015-04-26 05:47:00,
2015-04-26 00:52:00,72.4,69.3,29.74,West,261,1.0,1.0,90,0.00,,,0.00,VWS V12.08,2015-04-26 05:52:00,
2015-04-26 00:57:00,72.5,69.4,29.74,West,261,2.0,3.0,90,0.00,,,0.00,VWS V12.08,2015-04-26 05:57:00,
2015-04-26 01:02:00,72.5,69.4,29.73,West,261,2.0,2.0,90,0.00,,,0.00,VWS V12.08,2015-04-26 06:02:00,
2015-04-26 01:07:00,72.6,69.5,29.73,West,263,3.0,3.0,90,0.00,,,0.00,VWS V12.08,2015-04-26 06:07:00,
2015-04-26 01:12:00,72.6,69.5,29.73,WSW,253,1.0,4.0,90,0.00,,,0.00,VWS V12.08,2015-04-26 06:12:00,
2015-04-26 01:17:00,72.6,69.5,29.73,WSW,253,2.0,4.0,90,0.00,,,0.00,VWS V12.08,2015-04-26 06:17:00,
2015-04-26 01:22:00,72.6,69.5,29.73,West,264,1.0,1.0,90,0.00,,,0.00,VWS V12.08,2015-04-26 06:22:00,
2015-04-26 01:27:00,72.5,69.4,29.73,West,263,1.0,5.0,90,0.00,,,0.00,VWS V12.08,2015-04-26 06:27:00,
2015-04-26 01:32:00,72.5,69.4,29.73,West,261,3.0,3.0,90,0.00,,,0.00,VWS V12.08,2015-04-26 06:32:00,
2015-04-26 01:37:00,72.6,69.5,29.73,West,261,0.0,3.0,90,0.00,,,0.00,VWS V12.08,2015-04-26 06:37:00,
2015-04-26 01:42:00,72.6,69.5,29.73,West,261,3.0,3.0,90,0.00,,,0.00,VWS V12.08,2015-04-26 06:42:00,
2015-04-26 01:47:00,72.6,69.5,29.73,West,264,3.0,5.0,90,0.00,,,0.00,VWS V12.08,2015-04-26 06:47:00,
2015-04-26 01:52:00,72.6,69.5,29.73,West,264,1.0,3.0,90,0.00,,,0.00,VWS V12.08,2015-04-26 06:52:00,
2015-04-26 01:57:00,72.8,69.7,29.73,WSW,257,2.0,6.0,90,0.00,,,0.00,VWS V12.08,2015-04-26 06:57:00,
2015-04-26 02:02:00,72.7,69.6,29.73,WSW,256,3.0,3.0,90,0.00,,,0.00,VWS V12.08,2015-04-26 07:02:00,
2015-04-26 02:07:00,73.0,69.9,29.73,West,263,3.0,6.0,90,0.00,,,0.00,VWS V12.08,2015-04-26 07:07:00,
2015-04-26 02:12:00,73.0,69.9,29.73,West,264,1.0,2.0,90,0.00,,,0.00,VWS V12.08,2015-04-26 07:12:00,
2015-04-26 02:17:00,72.9,69.8,29.72,West,264,0.0,4.0,90,0.00,,,0.00,VWS V12.08,2015-04-26 07:17:00,
2015-04-26 02:22:00,72.9,69.8,29.72,West,278,2.0,3.0,90,0.00,,,0.00,VWS V12.08,2015-04-26 07:22:00,
2015-04-26 02:27:00,72.9,69.8,29.72,West,277,2.0,4.0,90,0.00,,,0.00,VWS V12.08,2015-04-26 07:27:00,
2015-04-26 02:32:00,72.7,69.6,29.73,West,277,2.0,2.0,90,0.00,,,0.00,VWS V12.08,2015-04-26 07:32:00,
2015-04-26 02:37:00,72.7,69.6,29.73,West,277,3.0,3.0,90,0.00,,,0.00,VWS V12.08,2015-04-26 07:37:00,
2015-04-26 02:42:00,72.7,69.6,29.73,West,277,1.0,1.0,90,0.00,,,0.00,VWS V12.08,2015-04-26 07:42:00,
2015-04-26 02:47:00,72.8,69.7,29.73,West,277,1.0,2.0,90,0.00,,,0.00,VWS V12.08,2015-04-26 07:47:00,
2015-04-26 02:52:00,72.6,69.5,29.73,West,277,0.0,0.0,90,0.00,,,0.00,VWS V12.08,2015-04-26 07:52:00,
2015-04-26 02:57:00,72.6,69.5,29.73,West,277,2.0,3.0,90,0.00,,,0.00,VWS V12.08,2015-04-26 07:57:00,
2015-04-26 03:02:00,72.6,69.5,29.73,West,277,2.0,2.0,90,0.00,,,0.00,VWS V12.08,2015-04-26 08:02:00,
2015-04-26 03:07:00,72.5,69.4,29.73,West,275,3.0,3.0,90,0.00,,,0.00,VWS V12.08,2015-04-26 08:07:00,
2015-04-26 03:12:00,72.5,69.4,29.73,West,275,2.0,3.0,90,0.00,,,0.00,VWS V12.08,2015-04-26 08:12:00,
2015-04-26 03:17:00,72.6,69.5,29.73,West,268,2.0,5.0,90,0.00,,,0.00,VWS V12.08,2015-04-26 08:17:00,
2015-04-26 03:22:00,72.6,69.5,29.73,West,270,1.0,1.0,90,0.00,,,0.00,VWS V12.08,2015-04-26 08:22:00,
2015-04-26 03:27:00,72.4,69.3,29.73,West,270,2.0,2.0,90,0.00,,,0.00,VWS V12.08,2015-04-26 08:27:00,
2015-04-26 03:37:00,72.2,69.1,29.73,West,270,2.0,3.0,90,0.00,,,0.00,VWS V12.08,2015-04-26 08:37:00,
2015-04-26 03:42:00,72.2,69.1,29.73,West,281,2.0,3.0,90,0.00,,,0.00,VWS V12.08,2015-04-26 08:42:00,
2015-04-26 03:47:00,72.3,69.2,29.73,West,281,0.0,3.0,90,0.00,,,0.00,VWS V12.08,2015-04-26 08:47:00,
2015-04-26 03:52:00,72.3,69.2,29.73,West,281,1.0,2.0,90,0.00,,,0.00,VWS V12.08,2015-04-26 08:52:00,
2015-04-26 03:57:00,72.3,69.2,29.73,West,281,2.0,3.0,90,0.00,,,0.00,VWS V12.08,2015-04-26 08:57:00,
2015-04-26 04:02:00,72.3,69.2,29.73,West,281,2.0,2.0,90,0.00,,,0.00,VWS V12.08,2015-04-26 09:02:00,
2015-04-26 04:07:00,72.1,69.0,29.73,West,281,2.0,3.0,90,0.00,,,0.00,VWS V12.08,2015-04-26 09:07:00,
2015-04-26 04:12:00,72.1,69.0,29.73,West,281,0.0,2.0,90,0.00,,,0.00,VWS V12.08,2015-04-26 09:12:00,
2015-04-26 04:17:00,71.8,68.7,29.72,West,281,2.0,3.0,90,0.00,,,0.00,VWS V12.08,2015-04-26 09:17:00,
2015-04-26 04:22:00,71.8,68.7,29.72,West,281,1.0,3.0,90,0.00,,,0.00,VWS V12.08,2015-04-26 09:22:00,
2015-04-26 04:27:00,72.0,68.9,29.72,WNW,282,2.0,5.0,90,0.00,,,0.00,VWS V12.08,2015-04-26 09:27:00,
2015-04-26 04:32:00,71.8,68.7,29.73,WNW,282,1.0,3.0,90,0.00,,,0.00,VWS V12.08,2015-04-26 09:32:00,
2015-04-26 04:37:00,71.7,68.6,29.73,West,281,1.0,3.0,90,0.00,,,0.00,VWS V12.08,2015-04-26 09:37:00,
2015-04-26 04:42:00,71.7,68.6,29.73,WNW,285,3.0,3.0,90,0.00,,,0.00,VWS V12.08,2015-04-26 09:42:00,
2015-04-26 04:47:00,71.7,68.6,29.73,WNW,285,3.0,5.0,90,0.00,,,0.00,VWS V12.08,2015-04-26 09:47:00,
2015-04-26 04:52:00,71.8,68.7,29.73,WNW,288,3.0,4.0,90,0.00,,,0.00,VWS V12.08,2015-04-26 09:52:00,
2015-04-26 04:57:00,71.8,68.7,29.73,WNW,287,2.0,4.0,90,0.00,,,0.00,VWS V12.08,2015-04-26 09:57:00,
2015-04-26 05:02:00,71.8,68.7,29.73,WNW,288,3.0,3.0,90,0.00,,,0.00,VWS V12.08,2015-04-26 10:02:00,
2015-04-26 05:07:00,71.8,68.7,29.73,WNW,289,0.0,5.0,90,0.00,,,0.00,VWS V12.08,2015-04-26 10:07:00,
2015-04-26 05:12:00,71.6,68.5,29.73,WNW,289,1.0,4.0,90,0.00,,,0.00,VWS V12.08,2015-04-26 10:12:00,
2015-04-26 05:17:00,71.6,68.5,29.73,WNW,289,2.0,4.0,90,0.00,,,0.00,VWS V12.08,2015-04-26 10:17:00,
2015-04-26 05:22:00,71.6,68.5,29.73,WNW,289,0.0,2.0,90,0.00,,,0.00,VWS V12.08,2015-04-26 10:22:00,
2015-04-26 05:27:00,71.5,68.4,29.73,WNW,289,0.0,2.0,90,0.00,,,0.00,VWS V12.08,2015-04-26 10:27:00,
2015-04-26 05:32:00,71.5,68.4,29.73,WNW,289,0.0,0.0,90,0.00,,,0.00,VWS V12.08,2015-04-26 10:32:00,
2015-04-26 05:37:00,71.3,68.2,29.73,WNW,289,0.0,0.0,90,0.00,,,0.00,VWS V12.08,2015-04-26 10:37:00,
2015-04-26 05:42:00,71.3,68.2,29.73,WNW,289,0.0,0.0,90,0.00,,,0.00,VWS V12.08,2015-04-26 10:42:00,
2015-04-26 05:47:00,71.1,68.0,29.74,WNW,289,0.0,0.0,90,0.00,,,0.00,VWS V12.08,2015-04-26 10:47:00,
2015-04-26 05:52:00,71.1,68.0,29.74,WNW,289,0.0,0.0,90,0.00,,,0.00,VWS V12.08,2015-04-26 10:52:00,
2015-04-26 05:57:00,70.9,67.8,29.74,NW,311,0.0,1.0,90,0.00,,,0.00,VWS V12.08,2015-04-26 10:57:00,
2015-04-26 06:02:00,70.9,67.8,29.75,NW,311,0.0,0.0,90,0.00,,,0.00,VWS V12.08,2015-04-26 11:02:00,
2015-04-26 06:07:00,70.9,67.8,29.75,NW,311,1.0,1.0,90,0.00,,,0.00,VWS V12.08,2015-04-26 11:07:00,
2015-04-26 06:12:00,70.9,67.8,29.75,NW,311,0.0,1.0,90,0.00,,,0.00,VWS V12.08,2015-04-26 11:12:00,
2015-04-26 06:17:00,70.9,67.8,29.75,NW,311,0.0,1.0,90,0.00,,,0.00,VWS V12.08,2015-04-26 11:17:00,
2015-04-26 06:22:00,70.9,67.8,29.75,NW,311,0.0,0.0,90,0.00,,,0.00,VWS V12.08,2015-04-26 11:22:00,
2015-04-26 06:27:00,70.9,67.8,29.75,NW,311,0.0,0.0,90,0.00,,,0.00,VWS V12.08,2015-04-26 11:27:00,
2015-04-26 06:32:00,70.9,67.8,29.75,NW,311,0.0,0.0,90,0.00,,,0.00,VWS V12.08,2015-04-26 11:32:00,
2015-04-26 06:37:00,70.9,67.8,29.75,NW,311,0.0,0.0,90,0.00,,,0.00,VWS V12.08,2015-04-26 11:37:00,
2015-04-26 06:42:00,71.0,67.9,29.75,NW,311,0.0,0.0,90,0.00,,,0.00,VWS V12.08,2015-04-26 11:42:00,
2015-04-26 06:47:00,71.0,67.9,29.75,NW,311,0.0,0.0,90,0.00,,,0.00,VWS V12.08,2015-04-26 11:47:00,
2015-04-26 06:52:00,71.1,68.0,29.75,NW,311,2.0,2.0,90,0.00,,,0.00,VWS V12.08,2015-04-26 11:52:00,
2015-04-26 06:57:00,71.1,68.0,29.75,NW,311,2.0,3.0,90,0.00,,,0.00,VWS V12.08,2015-04-26 11:57:00,
2015-04-26 07:02:00,71.2,68.1,29.75,NW,309,2.0,3.0,90,0.00,,,0.00,VWS V12.08,2015-04-26 12:02:00,
2015-04-26 07:07:00,71.5,68.4,29.75,NW,308,3.0,3.0,90,0.00,,,0.00,VWS V12.08,2015-04-26 12:07:00,
2015-04-26 07:12:00,71.6,68.5,29.75,NW,308,3.0,3.0,90,0.00,,,0.00,VWS V12.08,2015-04-26 12:12:00,
2015-04-26 07:17:00,71.8,68.7,29.75,NW,308,2.0,3.0,90,0.00,,,0.00,VWS V12.08,2015-04-26 12:17:00,
2015-04-26 07:22:00,71.9,68.8,29.75,NW,312,2.0,2.0,90,0.00,,,0.00,VWS V12.08,2015-04-26 12:22:00,
2015-04-26 07:27:00,71.9,68.8,29.75,NW,319,6.0,11.0,90,0.00,,,0.00,VWS V12.08,2015-04-26 12:27:00,
2015-04-26 07:32:00,72.1,69.0,29.76,NW,305,3.0,6.0,90,0.00,,,0.00,VWS V12.08,2015-04-26 12:32:00,
2015-04-26 07:37:00,72.1,69.0,29.76,NW,304,3.0,6.0,90,0.00,,,0.00,VWS V12.08,2015-04-26 12:37:00,
2015-04-26 07:42:00,72.1,69.0,29.76,NW,304,2.0,2.0,90,0.00,,,0.00,VWS V12.08,2015-04-26 12:42:00,
2015-04-26 07:47:00,72.1,69.0,29.76,NW,304,0.0,3.0,90,0.00,,,0.00,VWS V12.08,2015-04-26 12:47:00,
2015-04-26 07:52:00,72.1,69.0,29.76,NW,304,1.0,2.0,90,0.00,,,0.00,VWS V12.08,2015-04-26 12:52:00,
2015-04-26 07:57:00,72.3,69.2,29.76,NW,304,0.0,2.0,90,0.00,,,0.00,VWS V12.08,2015-04-26 12:57:00,
2015-04-26 08:02:00,72.4,69.3,29.76,NW,304,0.0,0.0,90,0.00,,,0.00,VWS V12.08,2015-04-26 13:02:00,
2015-04-26 08:07:00,72.4,69.3,29.76,NW,304,0.0,0.0,90,0.00,,,0.00,VWS V12.08,2015-04-26 13:07:00,